createdAt,value
2019-04-01T00:00:34.550Z,275.99
2019-04-01T00:02:03.427Z,275.99
2019-04-01T00:03:32.147Z,275.99
2019-04-01T00:05:00.868Z,275.95
2019-04-01T00:06:29.815Z,275.88
2019-04-01T00:07:58.632Z,275.8
2019-04-01T00:09:29.510Z,275.76
2019-04-01T00:10:58.225Z,275.76
2019-04-01T00:12:28.148Z,275.79
2019-04-01T00:13:56.947Z,275.72
2019-04-01T00:15:25.665Z,275.69
2019-04-01T00:16:54.464Z,275.7
2019-04-01T00:18:23.187Z,275.7
2019-04-01T00:19:51.906Z,275.68
2019-04-01T00:21:20.717Z,275.62
2019-04-01T00:22:49.796Z,275.66
2019-04-01T00:24:19.270Z,275.63
2019-04-01T00:25:47.985Z,275.56
2019-04-01T00:27:16.704Z,275.59
2019-04-01T00:28:45.441Z,275.56
2019-04-01T00:30:14.225Z,275.48
2019-04-01T00:31:43.506Z,275.41
2019-04-01T00:33:12.785Z,275.37
2019-04-01T00:34:42.466Z,275.37
2019-04-01T00:36:11.186Z,275.33
2019-04-01T00:37:39.906Z,275.28
2019-04-01T00:39:08.699Z,275.33
2019-04-01T00:40:39.106Z,275.29
2019-04-01T00:42:07.898Z,275.28
2019-04-01T00:43:36.709Z,275.27
2019-04-01T00:45:06.388Z,275.13
2019-04-01T00:46:35.106Z,275.15
2019-04-01T00:48:03.824Z,275.19
2019-04-01T00:49:32.624Z,275.12
2019-04-01T00:51:02.079Z,275.1
2019-04-01T00:52:31.745Z,275.03
2019-04-01T00:54:00.544Z,275.06
2019-04-01T00:55:29.345Z,275.06
2019-04-01T00:56:59.185Z,275.06
2019-04-01T00:58:30.456Z,275.05
2019-04-01T00:59:59.583Z,275.08
2019-04-01T01:01:29.186Z,275.08
2019-04-01T01:02:59.826Z,275.04
2019-04-01T01:04:30.386Z,275.03
2019-04-01T01:05:59.108Z,275.03
2019-04-01T01:07:27.828Z,274.94
2019-04-01T01:08:56.867Z,275
2019-04-01T01:10:27.346Z,274.92
2019-04-01T01:11:56.950Z,274.7
2019-04-01T01:13:25.747Z,274.72
2019-04-01T01:14:54.468Z,274.8
2019-04-01T01:16:24.148Z,274.85
2019-04-01T01:17:54.628Z,274.84
2019-04-01T01:19:23.347Z,274.78
2019-04-01T01:20:52.072Z,274.8
2019-04-01T01:22:20.866Z,274.82
2019-04-01T01:23:49.589Z,274.79
2019-04-01T01:25:18.310Z,274.77
2019-04-01T01:26:48.313Z,274.72
2019-04-01T01:28:17.029Z,274.83
2019-04-01T01:29:46.632Z,274.75
2019-04-01T01:31:15.667Z,274.68
2019-04-01T01:32:44.408Z,274.71
2019-04-01T01:34:13.189Z,274.7
2019-04-01T01:35:42.153Z,274.72
2019-04-01T01:37:10.955Z,274.69
2019-04-01T01:38:39.750Z,274.67
2019-04-01T01:40:10.230Z,274.6
2019-04-01T01:41:39.833Z,274.58
2019-04-01T01:43:10.312Z,274.6
2019-04-01T01:44:39.027Z,274.62
2019-04-01T01:46:08.313Z,274.62
2019-04-01T01:47:37.996Z,274.59
2019-04-01T01:49:06.707Z,274.58
2019-04-01T01:50:35.432Z,274.5
2019-04-01T01:52:04.150Z,274.54
2019-04-01T01:53:32.951Z,274.55
2019-04-01T01:55:01.676Z,274.48
2019-04-01T01:56:31.269Z,274.45
2019-04-01T01:58:00.069Z,274.41
2019-04-01T01:59:29.671Z,274.47
2019-04-01T02:00:58.390Z,274.44
2019-04-01T02:02:27.430Z,274.46
2019-04-01T02:03:56.151Z,274.46
2019-04-01T02:05:25.431Z,274.4
2019-04-01T02:06:54.310Z,274.42
2019-04-01T02:08:23.029Z,274.36
2019-04-01T02:09:51.748Z,274.38
2019-04-01T02:11:20.471Z,274.5
2019-04-01T02:12:49.187Z,274.5
2019-04-01T02:14:17.909Z,274.41
2019-04-01T02:15:46.707Z,274.42
2019-04-01T02:17:15.430Z,274.34
2019-04-01T02:18:45.026Z,274.25
2019-04-01T02:20:14.465Z,274.27
2019-04-01T02:21:43.185Z,274.27
2019-04-01T02:23:11.988Z,274.22
2019-04-01T02:24:40.784Z,274.21
2019-04-01T02:26:09.504Z,274.25
2019-04-01T02:27:38.227Z,274.29
2019-04-01T02:29:07.025Z,274.36
2019-04-01T02:30:37.023Z,274.41
2019-04-01T02:32:05.752Z,274.46
2019-04-01T02:33:34.544Z,274.56
2019-04-01T02:35:04.382Z,274.77
2019-04-01T02:36:33.105Z,274.87
2019-04-01T02:38:01.822Z,274.91
2019-04-01T02:39:30.866Z,274.88
2019-04-01T02:41:00.704Z,274.78
2019-04-01T02:42:29.422Z,274.7
2019-04-01T02:43:58.144Z,274.63
2019-04-01T02:45:27.745Z,274.52
2019-04-01T02:46:56.576Z,274.46
2019-04-01T02:48:26.304Z,274.39
2019-04-01T02:49:55.029Z,274.28
2019-04-01T02:51:23.824Z,274.2
2019-04-01T02:52:52.554Z,274.19
2019-04-01T02:54:22.557Z,274.18
2019-04-01T02:55:51.345Z,274.12
2019-04-01T02:57:20.945Z,274.14
2019-04-01T02:58:49.745Z,274.15
2019-04-01T03:00:19.505Z,274.12
2019-04-01T03:01:48.705Z,273.99
2019-04-01T03:03:17.425Z,274.19
2019-04-01T03:04:46.546Z,274.2
2019-04-01T03:06:15.265Z,274.16
2019-04-01T03:07:43.985Z,274.16
2019-04-01T03:09:13.269Z,274.1
2019-04-01T03:10:42.065Z,274.08
2019-04-01T03:12:11.589Z,274.02
2019-04-01T03:13:40.389Z,274.03
2019-04-01T03:15:10.074Z,274.01
2019-04-01T03:16:38.865Z,273.97
2019-04-01T03:18:08.548Z,273.97
2019-04-01T03:19:38.385Z,273.99
2019-04-01T03:21:07.104Z,274
2019-04-01T03:22:35.825Z,274.07
2019-04-01T03:24:04.784Z,274.06
2019-04-01T03:25:33.510Z,274
2019-04-01T03:27:02.387Z,273.89
2019-04-01T03:28:31.185Z,273.86
2019-04-01T03:30:00.823Z,273.78
2019-04-01T03:31:29.669Z,273.71
2019-04-01T03:32:58.544Z,273.65
2019-04-01T03:34:27.486Z,273.69
2019-04-01T03:35:56.304Z,273.91
2019-04-01T03:37:25.105Z,274.01
2019-04-01T03:38:54.788Z,273.99
2019-04-01T03:40:23.501Z,273.99
2019-04-01T03:41:53.905Z,273.92
2019-04-01T03:43:22.703Z,273.86
2019-04-01T03:44:54.973Z,273.8
2019-04-01T03:46:25.506Z,273.87
2019-04-01T03:47:54.301Z,273.84
2019-04-01T03:49:24.301Z,273.82
2019-04-01T03:50:53.424Z,273.84
2019-04-01T03:52:22.306Z,273.92
2019-04-01T03:53:51.904Z,273.9
2019-04-01T03:55:20.624Z,273.89
2019-04-01T03:56:49.428Z,273.81
2019-04-01T03:58:18.303Z,273.83
2019-04-01T03:59:47.024Z,274.02
2019-04-01T04:01:15.745Z,274.01
2019-04-01T04:02:44.464Z,273.98
2019-04-01T04:04:14.382Z,273.97
2019-04-01T04:05:43.105Z,273.9
2019-04-01T04:07:11.997Z,273.79
2019-04-01T04:08:40.864Z,273.67
2019-04-01T04:10:09.746Z,273.7
2019-04-01T04:11:38.625Z,273.86
2019-04-01T04:13:07.504Z,273.9
2019-04-01T04:14:36.428Z,273.95
2019-04-01T04:16:05.347Z,273.91
2019-04-01T04:17:34.144Z,273.78
2019-04-01T04:19:03.108Z,273.74
2019-04-01T04:20:32.383Z,273.66
2019-04-01T04:22:02.144Z,273.63
2019-04-01T04:23:30.866Z,273.59
2019-04-01T04:25:00.720Z,273.61
2019-04-01T04:26:33.185Z,273.64
2019-04-01T04:28:01.989Z,273.71
2019-04-01T04:29:30.785Z,273.64
2019-04-01T04:31:00.624Z,273.81
2019-04-01T04:32:29.907Z,274.03
2019-04-01T04:33:58.706Z,274.21
2019-04-01T04:35:27.433Z,274.34
2019-04-01T04:36:57.107Z,274.41
2019-04-01T04:38:25.910Z,274.43
2019-04-01T04:39:54.704Z,274.35
2019-04-01T04:41:23.508Z,274.34
2019-04-01T04:42:52.305Z,274.36
2019-04-01T04:44:21.029Z,274.27
2019-04-01T04:45:51.345Z,274.21
2019-04-01T04:47:20.070Z,274.21
2019-04-01T04:48:48.787Z,274.26
2019-04-01T04:50:17.600Z,274.23
2019-04-01T04:51:46.307Z,274.14
2019-04-01T04:53:15.026Z,274.1
2019-04-01T04:54:43.748Z,274.18
2019-04-01T04:56:13.745Z,274.21
2019-04-01T04:57:42.626Z,274.2
2019-04-01T04:59:11.347Z,274.2
2019-04-01T05:00:40.148Z,274.19
2019-04-01T05:02:08.867Z,274.17
2019-04-01T05:03:37.585Z,274.15
2019-04-01T05:05:06.305Z,274.21
2019-04-01T05:06:35.032Z,274.26
2019-04-01T05:08:03.748Z,274.23
2019-04-01T05:09:32.553Z,274.25
2019-04-01T05:11:01.348Z,274.27
2019-04-01T05:12:30.064Z,274.24
2019-04-01T05:13:58.788Z,274.25
2019-04-01T05:15:27.506Z,274.25
2019-04-01T05:16:56.231Z,274.32
2019-04-01T05:18:24.947Z,274.36
2019-04-01T05:19:53.747Z,274.28
2019-04-01T05:21:23.346Z,274.24
2019-04-01T05:22:52.067Z,274.26
2019-04-01T05:24:21.348Z,274.23
2019-04-01T05:25:51.529Z,274.2
2019-04-01T05:27:20.306Z,274.11
2019-04-01T05:28:49.103Z,274.19
2019-04-01T05:30:18.711Z,274.19
2019-04-01T05:31:47.426Z,274.11
2019-04-01T05:33:16.225Z,274.04
2019-04-01T05:34:45.106Z,274.05
2019-04-01T05:36:13.824Z,274.03
2019-04-01T05:37:42.545Z,274.05
2019-04-01T05:39:11.265Z,274.05
2019-04-01T05:40:39.991Z,274.08
2019-04-01T05:42:09.906Z,274.13
2019-04-01T05:43:38.708Z,274.18
2019-04-01T05:45:07.426Z,274.24
2019-04-01T05:46:36.388Z,274.27
2019-04-01T05:48:05.109Z,274.36
2019-04-01T05:49:35.666Z,274.39
2019-04-01T05:51:04.385Z,274.43
2019-04-01T05:52:34.146Z,274.52
2019-04-01T05:54:02.953Z,274.57
2019-04-01T05:55:50.095Z,274.57
2019-04-01T05:57:19.028Z,274.59
2019-04-01T05:58:47.746Z,274.59
2019-04-01T06:00:16.468Z,274.66
2019-04-01T06:01:45.272Z,274.77
2019-04-01T06:03:14.948Z,274.85
2019-04-01T06:04:44.625Z,274.84
2019-04-01T06:06:13.917Z,274.86
2019-04-01T06:07:42.706Z,274.91
2019-04-01T06:09:12.309Z,274.98
2019-04-01T06:10:41.026Z,275.07
2019-04-01T06:12:09.750Z,275.14
2019-04-01T06:13:38.468Z,275.19
2019-04-01T06:15:07.266Z,275.23
2019-04-01T06:16:35.985Z,275.31
2019-04-01T06:18:04.707Z,275.34
2019-04-01T06:19:33.522Z,275.33
2019-04-01T06:21:02.386Z,275.35
2019-04-01T06:22:31.109Z,275.31
2019-04-01T06:23:59.907Z,275.36
2019-04-01T06:25:28.706Z,275.45
2019-04-01T06:26:57.432Z,275.58
2019-04-01T06:28:26.230Z,275.65
2019-04-01T06:29:58.981Z,275.67
2019-04-01T06:31:28.387Z,275.8
2019-04-01T06:32:57.348Z,275.82
2019-04-01T06:34:26.943Z,275.89
2019-04-01T06:35:56.547Z,275.92
2019-04-01T06:37:25.273Z,275.96
2019-04-01T06:38:54.705Z,275.98
2019-04-01T06:40:23.426Z,276.04
2019-04-01T06:42:07.239Z,276.14
2019-04-01T06:43:36.225Z,276.24
2019-04-01T06:45:05.026Z,276.34
2019-04-01T06:46:33.747Z,276.37
2019-04-01T06:48:03.347Z,276.38
2019-04-01T06:49:32.067Z,276.42
2019-04-01T06:51:01.266Z,276.47
2019-04-01T06:52:30.065Z,276.47
2019-04-01T06:53:58.947Z,276.48
2019-04-01T06:55:27.667Z,276.55
2019-04-01T06:56:56.393Z,276.52
2019-04-01T06:58:25.428Z,276.53
2019-04-01T06:59:54.147Z,276.63
2019-04-01T07:01:23.991Z,276.69
2019-04-01T07:02:54.067Z,276.74
2019-04-01T07:04:22.789Z,276.82
2019-04-01T07:05:51.591Z,276.94
2019-04-01T07:07:24.549Z,276.98
2019-04-01T07:08:53.908Z,277.06
2019-04-01T07:10:24.801Z,277.13
2019-04-01T07:11:53.993Z,277.13
2019-04-01T07:13:22.706Z,277.14
2019-04-01T07:14:52.308Z,277.18
2019-04-01T07:16:21.351Z,277.25
2019-04-01T07:17:50.147Z,277.25
2019-04-01T07:19:18.867Z,277.3
2019-04-01T07:20:47.751Z,277.37
2019-04-01T07:22:16.551Z,277.4
2019-04-01T07:23:45.269Z,277.46
2019-04-01T07:25:14.004Z,277.52
2019-04-01T07:26:43.193Z,277.56
2019-04-01T07:28:11.909Z,277.59
2019-04-01T07:29:41.509Z,277.7
2019-04-01T07:31:10.231Z,277.82
2019-04-01T07:32:38.953Z,277.84
2019-04-01T07:34:07.671Z,277.84
2019-04-01T07:35:38.229Z,277.94
2019-04-01T07:37:06.950Z,278
2019-04-01T07:38:36.551Z,278.05
2019-04-01T07:40:06.150Z,278.08
2019-04-01T07:41:34.869Z,278.09
2019-04-01T07:43:03.675Z,278.18
2019-04-01T07:44:32.475Z,278.26
2019-04-01T07:46:07.975Z,278.34
2019-04-01T07:47:37.268Z,278.3
2019-04-01T07:49:06.116Z,278.44
2019-04-01T07:50:36.710Z,278.44
2019-04-01T07:52:05.509Z,278.52
2019-04-01T07:53:34.227Z,278.54
2019-04-01T07:55:03.908Z,278.63
2019-04-01T07:56:32.704Z,278.72
2019-04-01T07:58:04.712Z,278.74
2019-04-01T07:59:33.506Z,278.8
2019-04-01T08:01:02.227Z,278.86
2019-04-01T08:02:32.721Z,278.88
2019-04-01T08:04:01.428Z,278.91
2019-04-01T08:05:32.227Z,278.95
2019-04-01T08:07:01.427Z,278.93
2019-04-01T08:08:30.308Z,278.93
2019-04-01T08:09:59.066Z,279.13
2019-04-01T08:11:28.785Z,279.25
2019-04-01T08:12:58.309Z,279.33
2019-04-01T08:14:27.032Z,279.29
2019-04-01T08:15:56.626Z,279.25
2019-04-01T08:17:26.384Z,279.23
2019-04-01T08:18:55.110Z,279.36
2019-04-01T08:20:24.706Z,279.46
2019-04-01T08:21:54.465Z,279.57
2019-04-01T08:23:23.186Z,279.78
2019-04-01T08:24:51.993Z,279.85
2019-04-01T08:26:21.269Z,279.98
2019-04-01T08:27:50.869Z,280.06
2019-04-01T08:29:35.108Z,280.06
2019-04-01T08:31:03.825Z,280.04
2019-04-01T08:32:32.654Z,280.02
2019-04-01T08:34:02.395Z,280
2019-04-01T08:35:31.187Z,280.16
2019-04-01T08:36:59.906Z,280.26
2019-04-01T08:38:28.636Z,280.33
2019-04-01T08:39:57.349Z,280.38
2019-04-01T08:41:26.067Z,280.42
2019-04-01T08:42:54.866Z,280.55
2019-04-01T08:44:23.588Z,280.49
2019-04-01T08:45:53.187Z,280.52
2019-04-01T08:47:22.823Z,280.57
2019-04-01T08:48:51.586Z,280.71
2019-04-01T08:50:21.186Z,280.82
2019-04-01T08:51:49.992Z,280.81
2019-04-01T08:53:18.792Z,280.91
2019-04-01T08:54:51.982Z,280.87
2019-04-01T08:56:21.266Z,280.79
2019-04-01T08:57:50.869Z,280.88
2019-04-01T08:59:19.987Z,281.02
2019-04-01T09:00:48.725Z,281.15
2019-04-01T09:02:23.425Z,281.28
2019-04-01T09:03:52.147Z,281.29
2019-04-01T09:05:20.875Z,281.33
2019-04-01T09:06:50.075Z,281.36
2019-04-01T09:08:18.867Z,281.36
2019-04-01T09:09:47.587Z,281.46
2019-04-01T09:11:17.592Z,281.55
2019-04-01T09:12:46.386Z,281.63
2019-04-01T09:14:15.185Z,281.66
2019-04-01T09:15:43.906Z,281.68
2019-04-01T09:17:13.505Z,281.8
2019-04-01T09:18:42.308Z,281.79
2019-04-01T09:20:11.430Z,281.92
2019-04-01T09:21:42.067Z,282.01
2019-04-01T09:23:11.040Z,281.97
2019-04-01T09:24:39.826Z,281.96
2019-04-01T09:26:09.425Z,282.05
2019-04-01T09:27:39.029Z,282.1
2019-04-01T09:29:08.710Z,282.13
2019-04-01T09:30:38.409Z,282.18
2019-04-01T09:32:07.346Z,282.22
2019-04-01T09:33:36.226Z,282.23
2019-04-01T09:35:05.030Z,282.34
2019-04-01T09:36:34.155Z,282.18
2019-04-01T09:38:02.869Z,282.29
2019-04-01T09:39:31.666Z,282.38
2019-04-01T09:41:01.026Z,282.43
2019-04-01T09:42:30.468Z,282.51
2019-04-01T09:44:00.227Z,282.59
2019-04-01T09:45:28.950Z,282.61
2019-04-01T09:46:58.709Z,282.76
2019-04-01T09:48:28.869Z,282.84
2019-04-01T09:49:57.588Z,282.91
2019-04-01T09:51:26.387Z,283.01
2019-04-01T09:52:55.114Z,283.12
2019-04-01T09:54:24.548Z,283.26
2019-04-01T09:55:53.929Z,283.22
2019-04-01T09:57:23.667Z,283.21
2019-04-01T09:58:52.394Z,283.15
2019-04-01T10:00:21.119Z,283.3
2019-04-01T10:01:49.828Z,283.41
2019-04-01T10:03:19.272Z,283.37
2019-04-01T10:04:47.988Z,283.37
2019-04-01T10:06:16.789Z,283.46
2019-04-01T10:07:45.754Z,283.47
2019-04-01T10:09:15.107Z,283.58
2019-04-01T10:10:43.910Z,283.59
2019-04-01T10:12:13.507Z,283.69
2019-04-01T10:13:44.145Z,283.75
2019-04-01T10:15:12.870Z,283.75
2019-04-01T10:16:41.590Z,283.79
2019-04-01T10:18:11.271Z,283.89
2019-04-01T10:19:39.986Z,283.93
2019-04-01T10:21:09.586Z,283.95
2019-04-01T10:22:38.308Z,283.93
2019-04-01T10:24:07.906Z,284.02
2019-04-01T10:25:38.146Z,284.17
2019-04-01T10:27:06.917Z,284.26
2019-04-01T10:28:37.434Z,284.21
2019-04-01T10:30:07.037Z,284.2
2019-04-01T10:31:35.831Z,284.23
2019-04-01T10:33:07.369Z,284.28
2019-04-01T10:34:39.276Z,284.43
2019-04-01T10:36:08.067Z,284.52
2019-04-01T10:37:36.889Z,284.51
2019-04-01T10:39:07.193Z,284.56
2019-04-01T10:40:35.991Z,284.65
2019-04-01T10:42:04.790Z,284.72
2019-04-01T10:43:33.747Z,284.71
2019-04-01T10:45:03.347Z,284.76
2019-04-01T10:46:32.098Z,284.85
2019-04-01T10:48:01.168Z,284.93
2019-04-01T10:49:32.206Z,284.96
2019-04-01T10:51:02.228Z,285.08
2019-04-01T10:52:31.334Z,285.1
2019-04-01T10:54:01.171Z,285.06
2019-04-01T10:55:30.344Z,285.11
2019-04-01T10:56:59.255Z,285.09
2019-04-01T10:58:28.270Z,285.07
2019-04-01T10:59:57.286Z,285.22
2019-04-01T11:01:26.472Z,285.35
2019-04-01T11:02:56.069Z,285.4
2019-04-01T11:04:25.093Z,285.44
2019-04-01T11:05:54.273Z,285.53
2019-04-01T11:07:24.066Z,285.53
2019-04-01T11:08:53.166Z,285.54
2019-04-01T11:10:22.227Z,285.54
2019-04-01T11:11:51.834Z,285.52
2019-04-01T11:13:21.978Z,285.56
2019-04-01T11:14:51.312Z,285.68
2019-04-01T11:16:21.903Z,285.7
2019-04-01T11:17:52.181Z,285.74
2019-04-01T11:19:21.672Z,285.8
2019-04-01T11:20:50.466Z,285.88
2019-04-01T11:22:20.071Z,285.94
2019-04-01T11:23:48.786Z,286.05
2019-04-01T11:25:18.064Z,286.01
2019-04-01T11:26:47.106Z,285.93
2019-04-01T11:28:15.836Z,285.97
2019-04-01T11:29:44.545Z,286.08
2019-04-01T11:31:13.382Z,286.13
2019-04-01T11:32:42.330Z,286.09
2019-04-01T11:34:11.378Z,286.15
2019-04-01T11:35:40.436Z,286.23
2019-04-01T11:37:09.272Z,286.23
2019-04-01T11:38:38.234Z,286.3
2019-04-01T11:40:10.329Z,286.35
2019-04-01T11:41:41.557Z,286.47
2019-04-01T11:43:10.555Z,286.52
2019-04-01T11:44:40.387Z,286.56
2019-04-01T11:46:12.467Z,286.57
2019-04-01T11:47:41.877Z,286.53
2019-04-01T11:49:10.869Z,286.56
2019-04-01T11:50:39.666Z,286.74
2019-04-01T11:52:09.436Z,286.77
2019-04-01T11:53:38.308Z,286.78
2019-04-01T11:55:08.827Z,286.71
2019-04-01T11:56:38.787Z,286.72
2019-04-01T11:58:07.511Z,286.8
2019-04-01T11:59:37.233Z,286.86
2019-04-01T12:01:07.987Z,286.88
2019-04-01T12:02:36.948Z,286.91
2019-04-01T12:04:05.837Z,287.03
2019-04-01T12:05:34.630Z,287.09
2019-04-01T12:07:06.951Z,287.14
2019-04-01T12:08:35.929Z,287.12
2019-04-01T12:10:07.433Z,287.08
2019-04-01T12:11:36.792Z,287.05
2019-04-01T12:13:05.509Z,287.1
2019-04-01T12:14:36.152Z,287.15
2019-04-01T12:16:05.929Z,287.24
2019-04-01T12:17:35.909Z,287.26
2019-04-01T12:19:04.787Z,287.28
2019-04-01T12:20:33.589Z,287.31
2019-04-01T12:22:02.390Z,287.27
2019-04-01T12:23:31.509Z,287.27
2019-04-01T12:25:00.587Z,287.37
2019-04-01T12:26:29.507Z,287.46
2019-04-01T12:27:58.229Z,287.42
2019-04-01T12:29:26.951Z,287.5
2019-04-01T12:30:57.107Z,287.53
2019-04-01T12:32:26.709Z,287.56
2019-04-01T12:33:55.510Z,287.53
2019-04-01T12:35:24.628Z,287.5
2019-04-01T12:36:54.468Z,287.43
2019-04-01T12:38:24.949Z,287.51
2019-04-01T12:39:53.747Z,287.6
2019-04-01T12:41:24.946Z,287.71
2019-04-01T12:42:56.470Z,287.75
2019-04-01T12:44:26.065Z,287.82
2019-04-01T12:45:55.666Z,287.8
2019-04-01T12:47:24.390Z,287.88
2019-04-01T12:48:53.184Z,287.82
2019-04-01T12:50:21.911Z,287.74
2019-04-01T12:51:50.706Z,287.77
2019-04-01T12:53:19.426Z,287.78
2019-04-01T12:54:49.673Z,287.97
2019-04-01T12:56:19.345Z,288.08
2019-04-01T12:57:48.455Z,288.12
2019-04-01T12:59:17.667Z,288.16
2019-04-01T13:00:46.386Z,288.17
2019-04-01T13:02:17.911Z,288.14
2019-04-01T13:03:49.987Z,288.12
2019-04-01T13:05:19.506Z,288.09
2019-04-01T13:06:49.024Z,288.1
2019-04-01T13:08:17.746Z,288.05
2019-04-01T13:09:46.467Z,288.06
2019-04-01T13:11:15.828Z,288.16
2019-04-01T13:12:44.546Z,288.25
2019-04-01T13:14:15.186Z,288.33
2019-04-01T13:15:43.904Z,288.32
2019-04-01T13:17:12.706Z,288.33
2019-04-01T13:18:43.344Z,288.42
2019-04-01T13:20:13.882Z,288.48
2019-04-01T13:21:44.147Z,288.45
2019-04-01T13:23:13.987Z,288.42
2019-04-01T13:24:42.787Z,288.61
2019-04-01T13:26:11.540Z,288.68
2019-04-01T13:27:40.385Z,288.63
2019-04-01T13:29:09.346Z,288.67
2019-04-01T13:30:38.150Z,288.66
2019-04-01T13:32:06.875Z,288.7
2019-04-01T13:33:36.668Z,288.75
2019-04-01T13:35:05.426Z,288.75
2019-04-01T13:36:35.106Z,288.75
2019-04-01T13:38:03.828Z,288.74
2019-04-01T13:39:32.551Z,288.74
2019-04-01T13:41:01.757Z,288.74
2019-04-01T13:42:31.505Z,288.78
2019-04-01T13:44:01.977Z,288.66
2019-04-01T13:45:36.386Z,288.76
2019-04-01T13:47:05.429Z,288.74
2019-04-01T13:48:34.148Z,288.85
2019-04-01T13:50:03.657Z,288.9
2019-04-01T13:51:33.191Z,288.93
2019-04-01T13:53:02.788Z,289.03
2019-04-01T13:54:32.386Z,288.99
2019-04-01T13:56:01.108Z,289.03
2019-04-01T13:57:30.546Z,289.08
2019-04-01T13:59:00.158Z,289.08
2019-04-01T14:00:32.554Z,289.15
2019-04-01T14:02:02.225Z,289.19
2019-04-01T14:03:31.827Z,289.23
2019-04-01T14:05:01.266Z,289.29
2019-04-01T14:06:29.988Z,289.17
2019-04-01T14:07:58.713Z,289.16
2019-04-01T14:09:30.660Z,289.16
2019-04-01T14:10:59.910Z,289.21
2019-04-01T14:12:29.267Z,289.08
2019-04-01T14:13:57.985Z,289.08
2019-04-01T14:15:26.707Z,289.07
2019-04-01T14:16:55.432Z,289.11
2019-04-01T14:18:24.308Z,289.19
2019-04-01T14:19:54.148Z,289.23
2019-04-01T14:21:25.914Z,289.14
2019-04-01T14:22:58.551Z,289.07
2019-04-01T14:24:27.427Z,289.11
2019-04-01T14:25:56.225Z,289.14
2019-04-01T14:27:25.028Z,289.14
2019-04-01T14:28:54.147Z,289.21
2019-04-01T14:30:22.874Z,289.22
2019-04-01T14:31:51.669Z,289.21
2019-04-01T14:33:20.386Z,289.14
2019-04-01T14:34:50.422Z,289.09
2019-04-01T14:36:19.592Z,289.11
2019-04-01T14:37:48.466Z,289.16
2019-04-01T14:39:17.267Z,289.14
2019-04-01T14:40:46.067Z,289.14
2019-04-01T14:42:15.035Z,289.19
2019-04-01T14:43:45.345Z,289.22
2019-04-01T14:45:14.231Z,289.2
2019-04-01T14:46:44.068Z,289.14
2019-04-01T14:48:13.677Z,289.14
2019-04-01T14:49:42.550Z,289.16
2019-04-01T14:51:12.229Z,289.2
2019-04-01T14:52:41.336Z,289.24
2019-04-01T14:54:11.379Z,289.29
2019-04-01T14:55:41.984Z,289.24
2019-04-01T14:57:10.706Z,289.12
2019-04-01T14:58:39.430Z,289.11
2019-04-01T15:00:08.329Z,289.1
2019-04-01T15:01:38.625Z,289.04
2019-04-01T15:03:07.506Z,289.07
2019-04-01T15:04:36.320Z,289.08
2019-04-01T15:06:05.507Z,289.11
2019-04-01T15:07:34.225Z,289.12
2019-04-01T15:09:03.587Z,289.06
2019-04-01T15:10:33.192Z,289.12
2019-04-01T15:12:01.986Z,289.21
2019-04-01T15:13:32.224Z,289.18
2019-04-01T15:15:01.826Z,289.03
2019-04-01T15:16:33.108Z,288.96
2019-04-01T15:18:01.824Z,288.99
2019-04-01T15:19:32.146Z,289.01
2019-04-01T15:21:00.869Z,288.95
2019-04-01T15:22:32.225Z,288.98
2019-04-01T15:24:02.788Z,288.96
2019-04-01T15:25:31.758Z,289.01
2019-04-01T15:27:00.786Z,289.05
2019-04-01T15:28:30.556Z,289.05
2019-04-01T15:30:00.633Z,288.99
2019-04-01T15:31:31.589Z,288.87
2019-04-01T15:33:00.317Z,288.85
2019-04-01T15:34:29.106Z,288.79
2019-04-01T15:35:57.827Z,288.75
2019-04-01T15:37:31.823Z,288.69
2019-04-01T15:39:02.067Z,288.7
2019-04-01T15:40:33.270Z,288.58
2019-04-01T15:42:02.227Z,288.41
2019-04-01T15:43:31.827Z,288.46
2019-04-01T15:45:01.272Z,288.49
2019-04-01T15:46:30.152Z,288.44
2019-04-01T15:47:58.946Z,288.35
2019-04-01T15:49:28.547Z,288.34
2019-04-01T15:50:57.667Z,288.36
2019-04-01T15:52:26.464Z,288.34
2019-04-01T15:53:56.068Z,288.28
2019-04-01T15:55:25.503Z,288.34
2019-04-01T15:56:54.306Z,288.23
2019-04-01T15:58:23.184Z,288.14
2019-04-01T15:59:51.904Z,288.1
2019-04-01T16:01:21.584Z,288.08
2019-04-01T16:02:50.944Z,288.08
2019-04-01T16:04:21.501Z,287.95
2019-04-01T16:05:50.304Z,287.9
2019-04-01T16:07:21.014Z,287.89
2019-04-01T16:08:51.422Z,287.88
2019-04-01T16:10:21.004Z,287.71
2019-04-01T16:11:50.143Z,287.57
2019-04-01T16:13:19.340Z,287.48
2019-04-01T16:14:49.020Z,287.49
2019-04-01T16:16:19.741Z,287.51
2019-04-01T16:17:48.541Z,287.4
2019-04-01T16:19:17.422Z,287.41
2019-04-01T16:20:46.140Z,287.34
2019-04-01T16:22:14.860Z,287.3
2019-04-01T16:23:44.467Z,287.21
2019-04-01T16:25:13.407Z,287.13
2019-04-01T16:26:42.619Z,287.1
2019-04-01T16:28:11.421Z,287.12
2019-04-01T16:29:40.218Z,287.04
2019-04-01T16:31:09.899Z,286.96
2019-04-01T16:32:38.624Z,286.84
2019-04-01T16:34:07.742Z,286.71
2019-04-01T16:35:36.463Z,286.76
2019-04-01T16:37:05.258Z,286.8
2019-04-01T16:38:33.981Z,286.72
2019-04-01T16:40:05.642Z,286.66
2019-04-01T16:41:35.181Z,286.64
2019-04-01T16:43:03.980Z,286.56
2019-04-01T16:44:32.697Z,286.48
2019-04-01T16:46:01.419Z,286.45
2019-04-01T16:47:30.378Z,286.46
2019-04-01T16:48:59.100Z,286.39
2019-04-01T16:50:28.834Z,286.35
2019-04-01T16:51:57.818Z,286.35
2019-04-01T16:53:26.623Z,286.3
2019-04-01T16:54:55.579Z,286.28
2019-04-01T16:56:24.413Z,286.19
2019-04-01T16:57:53.262Z,286.08
2019-04-01T16:59:22.221Z,285.96
2019-04-01T17:00:51.027Z,285.84
2019-04-01T17:02:23.427Z,285.9
2019-04-01T17:03:53.822Z,285.87
2019-04-01T17:05:23.425Z,285.82
2019-04-01T17:06:52.142Z,285.72
2019-04-01T17:08:21.790Z,285.58
2019-04-01T17:09:50.546Z,285.52
2019-04-01T17:11:19.265Z,285.54
2019-04-01T17:12:48.305Z,285.46
2019-04-01T17:14:17.837Z,285.47
2019-04-01T17:15:48.471Z,285.36
2019-04-01T17:17:17.272Z,285.35
2019-04-01T17:18:47.346Z,285.24
2019-04-01T17:20:17.186Z,285.24
2019-04-01T17:21:45.988Z,285.16
2019-04-01T17:23:14.706Z,285.07
2019-04-01T17:24:45.862Z,285.09
2019-04-01T17:26:14.953Z,285.03
2019-04-01T17:27:43.667Z,284.97
2019-04-01T17:29:12.385Z,284.93
2019-04-01T17:30:41.907Z,284.9
2019-04-01T17:32:10.625Z,284.86
2019-04-01T17:33:39.344Z,284.85
2019-04-01T17:35:08.149Z,284.84
2019-04-01T17:36:39.260Z,284.83
2019-04-01T17:38:09.184Z,284.61
2019-04-01T17:39:39.268Z,284.53
2019-04-01T17:41:07.985Z,284.46
2019-04-01T17:42:39.176Z,284.44
2019-04-01T17:44:08.306Z,284.46
2019-04-01T17:45:37.673Z,284.36
2019-04-01T17:47:06.643Z,284.29
2019-04-01T17:48:35.429Z,284.27
2019-04-01T17:50:05.187Z,284.2
2019-04-01T17:51:33.906Z,284.14
2019-04-01T17:53:02.625Z,284.15
2019-04-01T17:54:31.345Z,284.15
2019-04-01T17:56:00.229Z,284.1
2019-04-01T17:57:29.428Z,284.03
2019-04-01T17:59:01.322Z,283.98
2019-04-01T18:00:31.508Z,283.94
2019-04-01T18:02:02.228Z,283.92
2019-04-01T18:03:30.946Z,283.89
2019-04-01T18:05:00.552Z,283.82
2019-04-01T18:06:29.271Z,283.78
2019-04-01T18:07:57.997Z,283.73
2019-04-01T18:09:27.032Z,283.73
2019-04-01T18:10:57.156Z,283.68
2019-04-01T18:12:28.957Z,283.66
2019-04-01T18:13:57.757Z,283.65
2019-04-01T18:15:26.553Z,283.58
2019-04-01T18:16:55.275Z,283.52
2019-04-01T18:18:34.022Z,283.46
2019-04-01T18:20:04.239Z,283.42
2019-04-01T18:21:34.475Z,283.41
2019-04-01T18:23:08.797Z,283.34
2019-04-01T18:24:38.483Z,283.29
2019-04-01T18:26:07.198Z,283.24
2019-04-01T18:27:35.998Z,283.21
2019-04-01T18:29:04.721Z,283.16
2019-04-01T18:30:35.056Z,283.14
2019-04-01T18:32:05.198Z,283.12
2019-04-01T18:33:35.201Z,283.09
2019-04-01T18:35:04.418Z,283.04
2019-04-01T18:36:34.763Z,283.01
2019-04-01T18:38:03.836Z,282.93
2019-04-01T18:39:47.352Z,282.82